If you wish to contribute or participate in the discussions about articles you are invited to join SKYbrary as a registered user

 Actions

Da Nang International Airport

From SKYbrary Wiki

VVDN
Airport
ICAO: VVDN – IATA: DAD
Summary
Name Da Nang International Airport
Region Asia and Pacific
Territory Vietnam VN.gif
Location Da Nang, Da Nang
Serving Da Nang
Elevation 10.058 m
33 ft10.058 m
Coordinates 16° 2' 38.00" N, 108° 11' 57.98" E
Runways
Designator Length Width Surface ROPS
17L/35R 3048 m10,000 ft
45 m147.638 ft
ASP yes/yes
17R/35L 3048 m10,000 ft
45 m147.638 ft
ASP yes/yes


METAR
Observation VVDN 211430Z 29003KT 080V150 9999 FEW015 SCT060 31/26 Q1008 NOSIG
Station Da Nang
Date/Time 21 August 2019 14:30:00
Wind direction 290°
Wind speed 03 kts
Lowest cloud amount few clouds
Temperature 31°C
Dew point 26°C
Humidity 74%
QNH 1008 hPa
Weather condition n/a

LOS
Tag(s) Parallel Runway Operation
WX
Tag(s) Cumulonimbus

Description

Da Nang International Airport is located in Da Nang, the largest city in central Vietnam.

Climatology

Tropical monsoon climate (Köppen climate classification Am)

Maps

Terrain

Loading map...

Airport Layout

Loading map...


Accidents & Serious Incidents at or in vicinity of VVDN

None on SKYbrary